Time;durP1;ratioP1;P1;durP2;ratioP2;P2;SDS_P1;SDS_P2;PMS_P1;PMS_P2;Temp;Humidity;BMP_temperature;BMP_pressure;BME280_temperature;BME280_humidity;BME280_pressure;Samples;Min_cycle;Max_cycle;Signal;HPM_P1;HPM_P2
2021/12/03 00:01:45;;;;;;;14.83;11.90;;;;;;;;;;5013231;28;20440;-61
2021/12/03 00:04:11;;;;;;;13.77;11.03;;;;;;;;;;5013039;28;20440;-60
2021/12/03 00:06:38;;;;;;;15.03;11.27;;;;;;;;;;5013309;28;20439;-60
2021/12/03 00:09:05;;;;;;;13.57;10.67;;;;;;;;;;5012986;28;20472;-60
2021/12/03 00:11:31;;;;;;;15.73;10.00;;;;;;;;;;5012804;28;20432;-60
2021/12/03 00:13:57;;;;;;;13.73;10.50;;;;;;;;;;5012600;28;20767;-61
2021/12/03 00:16:24;;;;;;;13.23;10.53;;;;;;;;;;5012988;28;20431;-61
2021/12/03 00:18:50;;;;;;;13.17;9.80;;;;;;;;;;5012862;28;20535;-60
2021/12/03 00:21:17;;;;;;;13.70;10.70;;;;;;;;;;5012972;28;20438;-61
2021/12/03 00:23:43;;;;;;;12.93;10.90;;;;;;;;;;5012963;28;20536;-61
2021/12/03 00:26:10;;;;;;;15.30;11.53;;;;;;;;;;5012637;28;20575;-61
2021/12/03 00:28:36;;;;;;;17.37;12.23;;;;;;;;;;5012962;28;20201;-61
2021/12/03 00:31:03;;;;;;;17.03;12.00;;;;;;;;;;5012818;28;20472;-58
2021/12/03 00:33:31;;;;;;;15.63;11.03;;;;;;;;;;5012687;28;20441;-58
2021/12/03 00:35:58;;;;;;;15.50;11.90;;;;;;;;;;5012773;28;20441;-57
2021/12/03 00:38:24;;;;;;;18.13;12.50;;;;;;;;;;5012380;28;20935;-57
2021/12/03 00:40:51;;;;;;;15.97;12.17;;;;;;;;;;5011996;28;20448;-57
2021/12/03 00:43:17;;;;;;;15.43;12.10;;;;;;;;;;5012400;28;20436;-57
2021/12/03 00:45:44;;;;;;;16.47;11.57;;;;;;;;;;5012550;28;20567;-58
2021/12/03 00:48:10;;;;;;;17.17;11.50;;;;;;;;;;5012306;28;20872;-58
2021/12/03 00:50:38;;;;;;;15.57;12.77;;;;;;;;;;5012572;28;20436;-58
2021/12/03 00:53:04;;;;;;;16.77;11.93;;;;;;;;;;5012403;28;20441;-57
2021/12/03 00:55:30;;;;;;;17.43;11.87;;;;;;;;;;5012428;28;20441;-58
2021/12/03 00:57:56;;;;;;;17.43;12.30;;;;;;;;;;5012526;28;20520;-57
2021/12/03 01:00:24;;;;;;;18.30;12.13;;;;;;;;;;5012149;28;20441;-58
2021/12/03 01:02:50;;;;;;;16.57;11.73;;;;;;;;;;5012324;28;20456;-57
2021/12/03 01:05:16;;;;;;;15.63;11.47;;;;;;;;;;5012207;28;20484;-57
2021/12/03 01:07:43;;;;;;;15.40;11.57;;;;;;;;;;5012454;28;20433;-58
2021/12/03 01:10:10;;;;;;;16.00;12.30;;;;;;;;;;5012152;28;21013;-57
2021/12/03 01:12:36;;;;;;;16.77;11.57;;;;;;;;;;5012289;28;20459;-57
2021/12/03 01:15:03;;;;;;;13.80;10.43;;;;;;;;;;5012367;28;20445;-58
2021/12/03 01:17:29;;;;;;;16.30;11.90;;;;;;;;;;5012129;28;20860;-58
2021/12/03 01:19:55;;;;;;;13.63;10.80;;;;;;;;;;5012149;28;20931;-58
2021/12/03 01:22:21;;;;;;;13.23;10.43;;;;;;;;;;5012078;28;20850;-57
2021/12/03 01:24:48;;;;;;;14.73;10.30;;;;;;;;;;5013515;28;21031;-57
2021/12/03 01:27:14;;;;;;;13.27;10.77;;;;;;;;;;5016295;28;20260;-58
2021/12/03 01:29:40;;;;;;;14.70;11.00;;;;;;;;;;5016343;28;20440;-58
2021/12/03 01:32:06;;;;;;;17.42;12.93;;;;;;;;;;5015707;28;20490;-58
2021/12/03 01:34:32;;;;;;;15.73;10.73;;;;;;;;;;5016146;28;20208;-59
2021/12/03 01:36:58;;;;;;;14.77;11.00;;;;;;;;;;5016143;28;20902;-59
2021/12/03 01:39:25;;;;;;;15.33;11.47;;;;;;;;;;5016031;28;20232;-58
2021/12/03 01:41:52;;;;;;;17.03;10.47;;;;;;;;;;5016209;28;20194;-59
2021/12/03 01:44:18;;;;;;;14.93;10.57;;;;;;;;;;5015892;28;20432;-59
2021/12/03 01:46:44;;;;;;;13.77;10.43;;;;;;;;;;5016099;28;20467;-59
2021/12/03 01:49:11;;;;;;;14.77;10.60;;;;;;;;;;5015847;28;20446;-59
2021/12/03 01:51:37;;;;;;;14.10;10.83;;;;;;;;;;5015963;28;20441;-59
2021/12/03 01:54:03;;;;;;;14.43;10.47;;;;;;;;;;5015832;28;20437;-58
2021/12/03 01:56:30;;;;;;;14.67;10.77;;;;;;;;;;5016040;28;20543;-58
2021/12/03 01:58:57;;;;;;;12.80;10.13;;;;;;;;;;5015847;28;20440;-59
2021/12/03 02:01:24;;;;;;;13.30;10.20;;;;;;;;;;5015534;28;20441;-59
2021/12/03 02:03:52;;;;;;;13.77;10.20;;;;;;;;;;5015683;28;20860;-59
2021/12/03 02:06:19;;;;;;;16.13;10.73;;;;;;;;;;5015497;28;20564;-59
2021/12/03 02:08:45;;;;;;;13.27;10.37;;;;;;;;;;5015461;28;21049;-59
2021/12/03 02:11:12;;;;;;;16.67;10.40;;;;;;;;;;5015829;28;20499;-59
2021/12/03 02:13:38;;;;;;;15.10;9.97;;;;;;;;;;5015442;28;20441;-58
2021/12/03 02:16:06;;;;;;;14.77;9.70;;;;;;;;;;5013852;28;20432;-59
2021/12/03 02:18:32;;;;;;;13.60;9.77;;;;;;;;;;5015453;28;20956;-58
2021/12/03 02:21:01;;;;;;;12.00;10.33;;;;;;;;;;5015479;28;20482;-59
2021/12/03 02:23:28;;;;;;;12.80;9.83;;;;;;;;;;5015310;28;20451;-59
2021/12/03 02:25:54;;;;;;;16.20;9.57;;;;;;;;;;5015245;28;20480;-59
2021/12/03 02:28:22;;;;;;;12.27;10.30;;;;;;;;;;5015204;28;20432;-58
2021/12/03 02:30:48;;;;;;;14.00;9.90;;;;;;;;;;5015233;28;20448;-59
2021/12/03 02:33:15;;;;;;;15.27;10.57;;;;;;;;;;5015131;28;20432;-58
2021/12/03 02:35:43;;;;;;;14.80;10.13;;;;;;;;;;5014170;28;20503;-58
2021/12/03 02:38:12;;;;;;;15.10;11.13;;;;;;;;;;5014939;28;20971;-60
2021/12/03 02:40:38;;;;;;;14.83;10.07;;;;;;;;;;5015130;28;20528;-58
2021/12/03 02:43:05;;;;;;;14.83;10.57;;;;;;;;;;5014864;28;20440;-58
2021/12/03 02:45:31;;;;;;;14.03;10.17;;;;;;;;;;5015078;28;20534;-58
2021/12/03 02:47:59;;;;;;;12.03;9.57;;;;;;;;;;5014752;28;20927;-59
2021/12/03 02:50:25;;;;;;;14.53;9.93;;;;;;;;;;5014721;28;20456;-58
2021/12/03 02:52:51;;;;;;;15.07;11.00;;;;;;;;;;5014865;28;20452;-58
2021/12/03 02:55:18;;;;;;;13.77;9.73;;;;;;;;;;5014723;28;20433;-58
2021/12/03 02:57:45;;;;;;;14.97;10.53;;;;;;;;;;5014857;28;20445;-59
2021/12/03 03:00:12;;;;;;;15.20;11.50;;;;;;;;;;5014586;28;20436;-59
2021/12/03 03:02:39;;;;;;;15.00;11.70;;;;;;;;;;5014537;28;20519;-59
2021/12/03 03:05:05;;;;;;;14.47;10.83;;;;;;;;;;5014342;28;20515;-58
2021/12/03 03:07:31;;;;;;;17.33;11.80;;;;;;;;;;5013448;28;20799;-58
2021/12/03 03:09:57;;;;;;;16.23;11.33;;;;;;;;;;5012319;28;20570;-59
2021/12/03 03:12:24;;;;;;;15.60;10.47;;;;;;;;;;5014114;28;20444;-59
2021/12/03 03:14:51;;;;;;;15.80;11.00;;;;;;;;;;5013897;28;20432;-58
2021/12/03 03:17:18;;;;;;;14.60;10.47;;;;;;;;;;5014105;28;20444;-58
2021/12/03 03:19:44;;;;;;;15.13;11.23;;;;;;;;;;5014264;28;20441;-59
2021/12/03 03:22:10;;;;;;;14.70;11.10;;;;;;;;;;5014096;28;20447;-59
2021/12/03 03:24:36;;;;;;;15.40;11.00;;;;;;;;;;5013916;28;20240;-59
2021/12/03 03:27:02;;;;;;;13.30;9.87;;;;;;;;;;5014002;28;20198;-59
2021/12/03 03:29:31;;;;;;;16.37;11.17;;;;;;;;;;5013948;28;20209;-59
2021/12/03 03:31:57;;;;;;;15.10;11.00;;;;;;;;;;5013856;28;20444;-58
2021/12/03 03:34:22;;;;;;;12.33;10.13;;;;;;;;;;5013645;28;20448;-58
2021/12/03 03:36:48;;;;;;;14.40;11.03;;;;;;;;;;5013802;28;20437;-58
2021/12/03 03:39:15;;;;;;;14.40;10.73;;;;;;;;;;5013709;28;20240;-58
2021/12/03 03:41:41;;;;;;;15.83;10.30;;;;;;;;;;5013738;28;20213;-59
2021/12/03 03:44:08;;;;;;;13.33;10.30;;;;;;;;;;5013605;28;20464;-59
2021/12/03 03:46:35;;;;;;;16.07;11.10;;;;;;;;;;5013224;28;20481;-59
2021/12/03 03:49:01;;;;;;;12.97;9.70;;;;;;;;;;5013522;28;21046;-58
2021/12/03 03:51:27;;;;;;;13.83;11.03;;;;;;;;;;5013382;28;20451;-60
2021/12/03 03:53:53;;;;;;;13.67;10.07;;;;;;;;;;5013475;28;20512;-58
2021/12/03 03:56:19;;;;;;;16.60;10.47;;;;;;;;;;5013335;28;20205;-58
2021/12/03 03:58:45;;;;;;;12.93;9.67;;;;;;;;;;5013551;28;20249;-58
2021/12/03 04:01:12;;;;;;;15.13;10.97;;;;;;;;;;5013220;28;20527;-58
2021/12/03 04:03:45;;;;;;;13.33;10.60;;;;;;;;;;5013134;28;20504;-58
2021/12/03 04:06:11;;;;;;;15.63;10.33;;;;;;;;;;5013015;28;20480;-58
2021/12/03 04:08:37;;;;;;;16.37;10.90;;;;;;;;;;5013080;28;20484;-59
2021/12/03 04:11:03;;;;;;;13.13;10.40;;;;;;;;;;5013164;28;20452;-58
2021/12/03 04:13:29;;;;;;;10.97;9.30;;;;;;;;;;5013089;28;20194;-58
2021/12/03 04:15:55;;;;;;;13.80;10.00;;;;;;;;;;5012782;28;20437;-58
2021/12/03 04:18:21;;;;;;;12.73;10.00;;;;;;;;;;5012598;28;20939;-59
2021/12/03 04:20:49;;;;;;;14.77;10.30;;;;;;;;;;5013110;28;20190;-58
2021/12/03 04:23:18;;;;;;;13.27;10.13;;;;;;;;;;5012882;28;20459;-59
2021/12/03 04:25:45;;;;;;;12.73;10.30;;;;;;;;;;5012948;28;20476;-58
2021/12/03 04:28:11;;;;;;;17.00;10.87;;;;;;;;;;5012706;28;20520;-58
2021/12/03 04:30:37;;;;;;;16.03;11.10;;;;;;;;;;5012605;28;20813;-58
2021/12/03 04:33:04;;;;;;;14.57;10.40;;;;;;;;;;5012715;28;20445;-58
2021/12/03 04:35:30;;;;;;;12.87;10.43;;;;;;;;;;5012686;28;20432;-61
2021/12/03 04:37:58;;;;;;;12.90;10.23;;;;;;;;;;5012689;28;20432;-59
2021/12/03 04:40:24;;;;;;;13.37;11.00;;;;;;;;;;5012510;28;20565;-59
2021/12/03 04:42:51;;;;;;;14.10;10.23;;;;;;;;;;5012535;28;20432;-59
2021/12/03 04:45:19;;;;;;;12.07;10.40;;;;;;;;;;5012430;28;20847;-59
2021/12/03 04:47:45;;;;;;;11.00;9.43;;;;;;;;;;5012605;28;20440;-59
2021/12/03 04:50:12;;;;;;;11.70;10.17;;;;;;;;;;5012466;28;20464;-59
2021/12/03 04:52:38;;;;;;;13.77;10.33;;;;;;;;;;5012362;28;20978;-58
2021/12/03 04:55:07;;;;;;;13.70;10.07;;;;;;;;;;5012400;28;20443;-58
2021/12/03 04:57:33;;;;;;;15.57;10.00;;;;;;;;;;5012282;28;20441;-59
2021/12/03 04:59:59;;;;;;;13.20;10.33;;;;;;;;;;5012041;28;20437;-59
2021/12/03 05:02:26;;;;;;;15.73;10.83;;;;;;;;;;5012143;28;20437;-59
2021/12/03 05:04:55;;;;;;;12.60;9.73;;;;;;;;;;5012169;28;20567;-59
2021/12/03 05:09:53;;;;;;;11.73;10.53;;;;;;;;;;5012067;28;20476;-57
2021/12/03 05:12:20;;;;;;;13.33;10.77;;;;;;;;;;5011920;28;20973;-57
2021/12/03 05:14:46;;;;;;;18.23;11.97;;;;;;;;;;5012236;28;20934;-57
2021/12/03 05:17:12;;;;;;;11.20;9.53;;;;;;;;;;5012008;28;20482;-59
2021/12/03 05:19:38;;;;;;;11.97;10.53;;;;;;;;;;5012134;28;20198;-57
2021/12/03 05:22:05;;;;;;;12.03;10.17;;;;;;;;;;5011956;28;20443;-57
2021/12/03 05:24:31;;;;;;;10.57;9.40;;;;;;;;;;5012021;28;20617;-57
2021/12/03 05:26:57;;;;;;;12.37;10.53;;;;;;;;;;5012010;28;20976;-57
2021/12/03 05:29:24;;;;;;;13.20;10.53;;;;;;;;;;5011884;28;20202;-58
2021/12/03 05:31:50;;;;;;;12.27;10.27;;;;;;;;;;5011893;28;20220;-57
2021/12/03 05:34:16;;;;;;;13.67;11.40;;;;;;;;;;5011976;28;20468;-57
2021/12/03 05:36:43;;;;;;;14.33;11.90;;;;;;;;;;5012088;28;20436;-57
2021/12/03 05:39:09;;;;;;;14.37;11.80;;;;;;;;;;5011842;28;20455;-58
2021/12/03 05:41:35;;;;;;;14.83;11.93;;;;;;;;;;5011655;28;20939;-58
2021/12/03 05:44:01;;;;;;;19.07;14.10;;;;;;;;;;5011922;28;20834;-57
2021/12/03 05:46:29;;;;;;;16.67;14.23;;;;;;;;;;5011577;28;20483;-58
2021/12/03 05:48:55;;;;;;;17.23;13.60;;;;;;;;;;5011826;28;20444;-58
2021/12/03 05:51:21;;;;;;;18.90;14.47;;;;;;;;;;5011525;28;20444;-58
2021/12/03 05:53:47;;;;;;;19.70;15.17;;;;;;;;;;5011836;28;20202;-58
2021/12/03 05:56:13;;;;;;;21.00;15.10;;;;;;;;;;5011706;28;20448;-59
2021/12/03 05:58:39;;;;;;;20.37;14.97;;;;;;;;;;5011730;28;20228;-58
2021/12/03 06:01:05;;;;;;;20.00;15.70;;;;;;;;;;5011665;28;20194;-58
2021/12/03 06:03:32;;;;;;;20.33;16.77;;;;;;;;;;5011568;28;20208;-58
2021/12/03 06:05:58;;;;;;;21.60;16.73;;;;;;;;;;5011628;28;20472;-58
2021/12/03 06:08:24;;;;;;;23.40;16.90;;;;;;;;;;5011405;28;20777;-60
2021/12/03 06:10:50;;;;;;;23.10;17.43;;;;;;;;;;5014258;28;20206;-58
2021/12/03 06:13:16;;;;;;;22.90;16.37;;;;;;;;;;5015217;28;20193;-58
2021/12/03 06:15:42;;;;;;;21.73;16.60;;;;;;;;;;5015242;28;20447;-58
2021/12/03 06:18:08;;;;;;;27.33;17.97;;;;;;;;;;5014614;28;20644;-58
2021/12/03 06:20:36;;;;;;;25.17;18.83;;;;;;;;;;5014752;28;20817;-58
2021/12/03 06:23:02;;;;;;;22.30;17.10;;;;;;;;;;5014669;28;20931;-58
2021/12/03 06:25:28;;;;;;;26.00;17.00;;;;;;;;;;5014909;28;21045;-58
2021/12/03 06:27:56;;;;;;;22.80;17.30;;;;;;;;;;5015084;28;20436;-58
2021/12/03 06:30:24;;;;;;;26.83;17.70;;;;;;;;;;5014716;28;20202;-58
2021/12/03 06:32:51;;;;;;;33.17;20.40;;;;;;;;;;5014821;28;20556;-58
2021/12/03 06:35:17;;;;;;;27.70;17.87;;;;;;;;;;5014870;28;20436;-58
2021/12/03 06:37:45;;;;;;;32.33;20.03;;;;;;;;;;5014693;28;20496;-58
2021/12/03 06:40:12;;;;;;;30.47;20.43;;;;;;;;;;5014492;28;20467;-58
2021/12/03 06:42:38;;;;;;;35.50;22.27;;;;;;;;;;5014772;28;20443;-58
2021/12/03 06:45:06;;;;;;;34.53;21.93;;;;;;;;;;5014555;28;20479;-58
2021/12/03 06:47:32;;;;;;;34.40;20.37;;;;;;;;;;5014526;28;20488;-57
2021/12/03 06:49:58;;;;;;;36.30;22.00;;;;;;;;;;5014610;28;20435;-58
2021/12/03 06:52:25;;;;;;;34.30;21.70;;;;;;;;;;5014358;28;20440;-58
2021/12/03 06:54:57;;;;;;;35.90;21.37;;;;;;;;;;5014310;28;20680;-58
2021/12/03 06:57:23;;;;;;;45.77;25.77;;;;;;;;;;5014289;28;20444;-58
2021/12/03 06:59:49;;;;;;;40.73;24.53;;;;;;;;;;5014332;28;20441;-58
2021/12/03 07:02:15;;;;;;;40.00;23.30;;;;;;;;;;5014418;28;20547;-57
2021/12/03 07:04:42;;;;;;;40.37;22.67;;;;;;;;;;5014202;28;20221;-57
2021/12/03 07:07:08;;;;;;;38.80;23.63;;;;;;;;;;5014124;28;20428;-58
2021/12/03 07:09:34;;;;;;;38.97;23.50;;;;;;;;;;5013782;28;20488;-58
2021/12/03 07:12:02;;;;;;;38.50;22.97;;;;;;;;;;5013712;28;20432;-57
2021/12/03 07:14:28;;;;;;;39.03;23.57;;;;;;;;;;5013605;28;20833;-57
2021/12/03 07:16:54;;;;;;;42.20;23.90;;;;;;;;;;5013854;28;20425;-58
2021/12/03 07:19:20;;;;;;;39.27;23.23;;;;;;;;;;5013714;28;20221;-57
2021/12/03 07:21:46;;;;;;;40.83;23.10;;;;;;;;;;5013321;28;20436;-59
2021/12/03 07:24:12;;;;;;;36.23;22.90;;;;;;;;;;5014016;28;20428;-58
2021/12/03 07:26:38;;;;;;;40.03;23.27;;;;;;;;;;5013814;28;20316;-59
2021/12/03 07:29:05;;;;;;;38.33;23.90;;;;;;;;;;5013808;28;20437;-59
2021/12/03 07:31:31;;;;;;;37.43;23.27;;;;;;;;;;5013646;28;20882;-59
2021/12/03 07:33:58;;;;;;;37.27;23.43;;;;;;;;;;5013793;28;20527;-59
2021/12/03 07:36:24;;;;;;;38.77;23.27;;;;;;;;;;5013616;28;20220;-59
2021/12/03 07:38:50;;;;;;;35.13;22.17;;;;;;;;;;5013669;28;20444;-59
2021/12/03 07:41:16;;;;;;;37.63;23.30;;;;;;;;;;5013511;28;20441;-59
2021/12/03 07:43:42;;;;;;;35.83;22.53;;;;;;;;;;5013422;28;20436;-58
2021/12/03 07:46:09;;;;;;;33.27;21.40;;;;;;;;;;5013248;28;20733;-58
2021/12/03 07:48:36;;;;;;;37.50;24.03;;;;;;;;;;5013475;28;20471;-60
2021/12/03 07:51:02;;;;;;;34.97;23.47;;;;;;;;;;5013396;28;20436;-58
2021/12/03 07:53:28;;;;;;;36.90;22.73;;;;;;;;;;5013223;28;20428;-57
2021/12/03 07:55:55;;;;;;;38.33;23.33;;;;;;;;;;5013299;28;20441;-60
2021/12/03 07:58:21;;;;;;;39.30;22.97;;;;;;;;;;5013185;28;20211;-58
2021/12/03 08:00:48;;;;;;;38.37;23.20;;;;;;;;;;5013306;28;20475;-59
2021/12/03 08:03:16;;;;;;;40.17;24.60;;;;;;;;;;5012991;28;20452;-59
2021/12/03 08:05:42;;;;;;;37.10;21.67;;;;;;;;;;5012892;28;20917;-59
2021/12/03 08:08:08;;;;;;;38.53;23.30;;;;;;;;;;5013067;28;20464;-57
2021/12/03 08:10:35;;;;;;;37.00;23.20;;;;;;;;;;5012757;28;20243;-58
2021/12/03 08:13:01;;;;;;;39.57;25.03;;;;;;;;;;5013119;28;20436;-58
2021/12/03 08:15:27;;;;;;;41.00;25.73;;;;;;;;;;5013148;28;20444;-58
2021/12/03 08:17:53;;;;;;;43.37;24.73;;;;;;;;;;5012776;28;20455;-58
2021/12/03 08:20:20;;;;;;;50.90;28.10;;;;;;;;;;5012561;28;20436;-58
2021/12/03 08:22:46;;;;;;;41.60;27.50;;;;;;;;;;5012896;28;20445;-58
2021/12/03 08:25:13;;;;;;;48.67;28.33;;;;;;;;;;5012619;28;21038;-58
2021/12/03 08:27:41;;;;;;;51.23;29.07;;;;;;;;;;5012800;28;20816;-57
2021/12/03 08:30:10;;;;;;;47.50;26.87;;;;;;;;;;5012767;28;20440;-57
2021/12/03 08:32:36;;;;;;;47.33;27.97;;;;;;;;;;5012091;28;20437;-57
2021/12/03 08:35:03;;;;;;;44.73;26.73;;;;;;;;;;5012289;28;20434;-57
2021/12/03 08:37:30;;;;;;;43.20;26.77;;;;;;;;;;5012621;28;20252;-58
2021/12/03 08:39:56;;;;;;;39.70;23.57;;;;;;;;;;5012672;28;20448;-59
2021/12/03 08:42:22;;;;;;;35.67;22.20;;;;;;;;;;5012401;28;20801;-58
2021/12/03 08:44:48;;;;;;;36.03;23.30;;;;;;;;;;5012491;28;20527;-59
2021/12/03 08:47:16;;;;;;;39.73;23.37;;;;;;;;;;5012473;28;20225;-59
2021/12/03 08:49:54;;;;;;;37.80;23.77;;;;;;;;;;5012540;28;20495;-58
2021/12/03 08:54:51;;;;;;;38.87;25.03;;;;;;;;;;5012577;28;20449;-57
2021/12/03 08:57:17;;;;;;;37.80;23.83;;;;;;;;;;5012348;28;20441;-63
2021/12/03 08:59:43;;;;;;;43.20;25.20;;;;;;;;;;5012255;28;21005;-58
2021/12/03 09:02:10;;;;;;;42.60;25.80;;;;;;;;;;5012167;28;20441;-58
2021/12/03 09:04:36;;;;;;;37.33;24.47;;;;;;;;;;5012020;28;20226;-58
2021/12/03 09:07:03;;;;;;;35.33;23.30;;;;;;;;;;5012026;28;20571;-63
2021/12/03 09:09:30;;;;;;;37.43;24.63;;;;;;;;;;5011959;28;20229;-62
2021/12/03 09:11:58;;;;;;;36.07;22.07;;;;;;;;;;5012184;28;20449;-63
2021/12/03 09:14:31;;;;;;;35.50;23.47;;;;;;;;;;4994373;28;20830;-63
2021/12/03 09:20:00;;;;;;;32.33;22.03;;;;;;;;;;4983886;28;20499;-69
2021/12/03 09:24:58;;;;;;;30.27;21.17;;;;;;;;;;5011934;28;20437;-64
2021/12/03 09:27:25;;;;;;;31.13;21.47;;;;;;;;;;5014562;28;20778;-63
2021/12/03 09:29:54;;;;;;;28.80;20.67;;;;;;;;;;5031784;28;20432;-61
2021/12/03 09:32:22;;;;;;;30.57;20.07;;;;;;;;;;5031611;28;20440;-61
2021/12/03 09:34:49;;;;;;;30.03;20.43;;;;;;;;;;5031820;28;20436;-61
2021/12/03 09:37:15;;;;;;;31.33;20.10;;;;;;;;;;5031885;28;20427;-61
2021/12/03 09:39:43;;;;;;;32.63;20.53;;;;;;;;;;5031359;28;20443;-61
2021/12/03 09:42:09;;;;;;;30.63;20.40;;;;;;;;;;5031804;28;20436;-61
2021/12/03 09:44:40;;;;;;;30.70;19.97;;;;;;;;;;5032414;28;20490;-60
2021/12/03 09:47:06;;;;;;;28.57;19.67;;;;;;;;;;5035560;28;20821;-60
2021/12/03 09:54:44;;;;;;;28.87;20.30;;;;;;;;;;5035458;28;20439;-58
2021/12/03 09:57:13;;;;;;;28.87;19.50;;;;;;;;;;5035514;28;20493;-58
2021/12/03 10:11:13;;;;;;;29.00;18.80;;;;;;;;;;5032856;28;20553;-58
2021/12/03 10:13:25;;;;;;;28.67;18.43;;;;;;;;;;5034853;28;20439;-59
2021/12/03 10:16:01;;;;;;;27.23;17.77;;;;;;;;;;5034710;28;20436;-59
2021/12/03 10:18:33;;;;;;;28.27;19.57;;;;;;;;;;5034868;28;20446;-59
2021/12/03 10:39:46;;;;;;;30.57;20.33;;;;;;;;;;5034368;28;20454;-59
2021/12/03 10:45:46;;;;;;;33.10;19.90;;;;;;;;;;5034486;28;20514;-59
2021/12/03 10:48:12;;;;;;;29.60;19.73;;;;;;;;;;5019718;28;20802;-59
2021/12/03 10:58:43;;;;;;;26.17;19.10;;;;;;;;;;5033634;28;20439;-59
2021/12/03 11:01:50;;;;;;;27.67;19.83;;;;;;;;;;5034198;28;20445;-58
2021/12/03 11:21:21;;;;;;;27.73;19.93;;;;;;;;;;5033983;28;20466;-68
2021/12/03 11:27:03;;;;;;;31.77;20.77;;;;;;;;;;5033686;28;20992;-66
2021/12/03 11:29:22;;;;;;;26.30;19.63;;;;;;;;;;5033380;28;20436;-62
2021/12/03 11:33:43;;;;;;;29.80;20.33;;;;;;;;;;5033555;28;20501;-62
2021/12/03 11:35:05;;;;;;;26.47;19.60;;;;;;;;;;5033322;28;20515;-63
2021/12/03 11:37:51;;;;;;;29.67;20.10;;;;;;;;;;5032910;28;20718;-62
2021/12/03 11:41:32;;;;;;;28.43;19.17;;;;;;;;;;5030535;28;20490;-62
2021/12/03 11:52:39;;;;;;;32.53;19.90;;;;;;;;;;5032972;28;20411;-61
2021/12/03 11:58:33;;;;;;;31.70;17.93;;;;;;;;;;5032628;28;20514;-62
2021/12/03 12:04:34;;;;;;;28.47;17.33;;;;;;;;;;5032876;28;20430;-62
2021/12/03 12:18:24;;;;;;;21.77;14.90;;;;;;;;;;5032778;28;20590;-63
2021/12/03 12:26:50;;;;;;;20.13;13.43;;;;;;;;;;5032482;28;20838;-62
2021/12/03 12:40:59;;;;;;;17.93;9.70;;;;;;;;;;5032119;28;20423;-63
2021/12/03 13:00:24;;;;;;;12.60;7.60;;;;;;;;;;5032229;28;20419;-63
2021/12/03 13:24:31;;;;;;;10.87;7.17;;;;;;;;;;5031706;28;20419;-59
2021/12/03 13:44:56;;;;;;;9.33;5.70;;;;;;;;;;5031619;28;20419;-58
2021/12/03 14:06:19;;;;;;;8.43;5.17;;;;;;;;;;5031009;28;20491;-59
2021/12/03 14:09:07;;;;;;;10.13;5.77;;;;;;;;;;5030461;28;20473;-58
2021/12/03 14:24:48;;;;;;;11.20;5.70;;;;;;;;;;5030942;28;20455;-59
2021/12/03 14:36:48;;;;;;;9.80;4.77;;;;;;;;;;5034476;28;20795;-61
2021/12/03 14:39:58;;;;;;;9.47;5.07;;;;;;;;;;5033993;28;20443;-59
2021/12/03 14:45:14;;;;;;;14.87;4.80;;;;;;;;;;5006066;28;20511;-58
2021/12/03 14:48:06;;;;;;;10.77;5.03;;;;;;;;;;5034275;28;20471;-58
2021/12/03 14:50:57;;;;;;;12.10;4.73;;;;;;;;;;5034384;28;20470;-59
2021/12/03 14:53:55;;;;;;;14.60;4.93;;;;;;;;;;5034190;28;20530;-59
2021/12/03 14:56:25;;;;;;;8.90;4.80;;;;;;;;;;5034534;28;20459;-59
2021/12/03 15:02:00;;;;;;;8.67;3.87;;;;;;;;;;5130722;27;20284;-59
2021/12/03 15:09:37;;;;;;;8.40;4.10;;;;;;;;;;5089334;28;20923;-59
2021/12/03 15:25:18;;;;;;;10.93;4.30;;;;;;;;;;5089020;28;20448;-58
2021/12/03 15:35:56;;;;;;;7.47;3.77;;;;;;;;;;5088460;28;20955;-59
2021/12/03 15:51:58;;;;;;;8.40;3.30;;;;;;;;;;5088400;28;20474;-57
2021/12/03 15:52:01;;;;;;;7.93;3.53;;;;;;;;;;5088167;28;20919;-58
2021/12/03 15:57:58;;;;;;;9.83;4.07;;;;;;;;;;5088173;28;20470;-59
2021/12/03 16:08:41;;;;;;;5.77;3.30;;;;;;;;;;5088277;28;21054;-60
2021/12/03 16:13:57;;;;;;;6.83;3.33;;;;;;;;;;5074836;28;20430;-61
2021/12/03 16:16:48;;;;;;;8.23;4.13;;;;;;;;;;5074588;28;20437;-60
2021/12/03 16:21:49;;;;;;;8.70;3.83;;;;;;;;;;5074419;28;21004;-60
2021/12/03 16:27:19;;;;;;;8.07;4.67;;;;;;;;;;5074446;28;20413;-60
2021/12/03 16:43:48;;;;;;;8.17;4.27;;;;;;;;;;5074278;28;20421;-60
2021/12/03 16:46:23;;;;;;;6.67;4.23;;;;;;;;;;5074181;28;20430;-59
2021/12/03 16:51:51;;;;;;;8.07;4.80;;;;;;;;;;5073886;28;20424;-61
2021/12/03 16:54:27;;;;;;;8.03;4.17;;;;;;;;;;5074028;28;20456;-60
2021/12/03 16:56:54;;;;;;;8.00;4.10;;;;;;;;;;5073946;28;20892;-59
2021/12/03 16:59:21;;;;;;;7.20;3.90;;;;;;;;;;5073625;28;20457;-60
2021/12/03 17:02:02;;;;;;;7.27;3.77;;;;;;;;;;5073603;28;20478;-59
2021/12/03 17:45:50;;;;;;;5.50;3.83;;;;;;;;;;5072980;28;20951;-60
2021/12/03 17:58:26;;;;;;;7.70;4.13;;;;;;;;;;5072587;28;20509;-60
2021/12/03 18:06:11;;;;;;;8.87;4.17;;;;;;;;;;5072517;28;20461;-61
2021/12/03 18:08:47;;;;;;;5.37;4.60;;;;;;;;;;5072173;28;20481;-59
2021/12/03 18:11:54;;;;;;;6.73;4.90;;;;;;;;;;5072585;28;20455;-60
2021/12/03 18:17:27;;;;;;;8.23;5.30;;;;;;;;;;5072522;28;20424;-61
2021/12/03 18:52:42;;;;;;;9.73;6.30;;;;;;;;;;5072110;28;20466;-60
2021/12/03 18:55:11;;;;;;;8.03;6.40;;;;;;;;;;5072143;28;20434;-59
2021/12/03 18:57:43;;;;;;;9.07;6.50;;;;;;;;;;5071701;28;20467;-58
2021/12/03 19:00:11;;;;;;;10.10;6.77;;;;;;;;;;5071420;28;20496;-59
2021/12/03 19:02:40;;;;;;;15.67;7.03;;;;;;;;;;5071642;28;20438;-59
2021/12/03 19:05:19;;;;;;;12.53;7.10;;;;;;;;;;5070891;28;20976;-58
2021/12/03 19:08:04;;;;;;;10.07;6.87;;;;;;;;;;5071629;28;20996;-59
2021/12/03 19:10:32;;;;;;;9.53;6.20;;;;;;;;;;5071635;28;20445;-62
2021/12/03 19:13:05;;;;;;;10.00;6.97;;;;;;;;;;5071755;28;20433;-59
2021/12/03 19:15:32;;;;;;;6.70;6.00;;;;;;;;;;5071647;28;20440;-58
2021/12/03 19:18:02;;;;;;;8.43;6.27;;;;;;;;;;5071671;28;20422;-59
2021/12/03 19:20:36;;;;;;;12.33;6.80;;;;;;;;;;5071390;28;20971;-59
2021/12/03 19:23:02;;;;;;;9.17;6.87;;;;;;;;;;5071741;28;20777;-60
2021/12/03 19:25:28;;;;;;;10.77;6.60;;;;;;;;;;5071500;28;20487;-60
2021/12/03 19:27:55;;;;;;;8.27;5.90;;;;;;;;;;5070332;28;20434;-59
2021/12/03 19:30:21;;;;;;;7.43;6.63;;;;;;;;;;5071395;28;20537;-59
2021/12/03 19:32:47;;;;;;;9.17;6.93;;;;;;;;;;5071152;28;20434;-58
2021/12/03 19:35:14;;;;;;;8.13;5.83;;;;;;;;;;5071367;28;20932;-59
2021/12/03 19:37:40;;;;;;;7.37;5.80;;;;;;;;;;5071243;28;20200;-60
2021/12/03 19:40:10;;;;;;;6.43;5.80;;;;;;;;;;5071181;28;20868;-59
2021/12/03 19:42:51;;;;;;;8.87;6.20;;;;;;;;;;5070125;28;20438;-60
2021/12/03 19:45:21;;;;;;;5.87;5.10;;;;;;;;;;5071366;28;20437;-60
2021/12/03 19:47:56;;;;;;;6.77;6.07;;;;;;;;;;5073685;28;20954;-64
2021/12/03 19:53:01;;;;;;;7.90;5.60;;;;;;;;;;5075056;28;20425;-59
2021/12/03 19:55:27;;;;;;;6.77;5.80;;;;;;;;;;5075032;28;20801;-59
2021/12/03 19:57:53;;;;;;;6.13;5.53;;;;;;;;;;5074903;28;20438;-60
2021/12/03 20:00:23;;;;;;;10.23;5.80;;;;;;;;;;5073624;28;20509;-59
2021/12/03 20:02:49;;;;;;;6.43;5.23;;;;;;;;;;5074667;28;20440;-59
2021/12/03 20:05:15;;;;;;;5.80;5.20;;;;;;;;;;5074420;28;20495;-59
2021/12/03 20:07:43;;;;;;;10.17;5.93;;;;;;;;;;5071478;28;20442;-58
2021/12/03 20:10:10;;;;;;;8.37;6.07;;;;;;;;;;5074171;28;20574;-59
2021/12/03 20:12:36;;;;;;;5.87;5.00;;;;;;;;;;5074651;28;20440;-59
2021/12/03 20:15:06;;;;;;;6.07;5.47;;;;;;;;;;5074478;28;20808;-60
2021/12/03 20:17:41;;;;;;;6.03;5.43;;;;;;;;;;5074474;28;20438;-59
2021/12/03 20:20:09;;;;;;;6.00;5.30;;;;;;;;;;5074291;28;20844;-59
2021/12/03 20:25:32;;;;;;;6.73;5.87;;;;;;;;;;5074475;28;20952;-58
2021/12/03 20:28:06;;;;;;;7.87;5.57;;;;;;;;;;5074745;28;20515;-59
2021/12/03 20:36:35;;;;;;;7.07;5.37;;;;;;;;;;5074039;28;20854;-59
2021/12/03 20:38:27;;;;;;;6.00;5.40;;;;;;;;;;5056405;28;20438;-58
2021/12/03 20:40:58;;;;;;;7.07;5.83;;;;;;;;;;5073883;28;20848;-59
2021/12/03 20:46:28;;;;;;;6.33;5.73;;;;;;;;;;5073736;28;20444;-58
2021/12/03 20:49:16;;;;;;;7.50;5.90;;;;;;;;;;5073928;28;21023;-59
2021/12/03 20:54:29;;;;;;;7.17;6.03;;;;;;;;;;5074098;28;20521;-60
2021/12/03 21:10:44;;;;;;;6.63;5.93;;;;;;;;;;5073597;28;20816;-59
2021/12/03 21:13:20;;;;;;;7.27;6.30;;;;;;;;;;5073668;28;20487;-59
2021/12/03 21:16:08;;;;;;;6.33;5.77;;;;;;;;;;5073583;28;20440;-58
2021/12/03 21:23:33;;;;;;;5.90;5.37;;;;;;;;;;5073374;28;20521;-58
2021/12/03 21:25:59;;;;;;;7.87;5.83;;;;;;;;;;5073313;28;20444;-58
2021/12/03 21:31:05;;;;;;;7.10;5.77;;;;;;;;;;5073157;28;20215;-59
2021/12/03 21:38:49;;;;;;;7.13;5.67;;;;;;;;;;5072778;28;20245;-58
2021/12/03 21:41:22;;;;;;;6.17;5.57;;;;;;;;;;5073296;28;20473;-59
2021/12/03 21:43:51;;;;;;;6.30;5.70;;;;;;;;;;5072787;28;20849;-60
2021/12/03 21:46:18;;;;;;;6.87;6.27;;;;;;;;;;5072856;28;20963;-58
2021/12/03 21:48:45;;;;;;;6.43;5.87;;;;;;;;;;5072644;28;20591;-58